Time,TemperatureF,DewpointF,PressureIn,WindDirection,WindDirectionDegrees,WindSpeedMPH,WindSpeedGustMPH,Humidity,HourlyPrecipIn,Conditions,Clouds,dailyrainin,SoftwareType,DateUTC
2013-06-25 00:11:00,71.0,70.0,30.16,NE,40,0.0,0.0,96,0.00,,,0.07,,2013-06-25 04:11:00,
2013-06-25 00:22:00,71.0,70.0,30.16,NE,41,0.0,0.0,97,0.00,,,0.07,,2013-06-25 04:22:00,
2013-06-25 01:44:00,71.0,70.0,30.16,ENE,58,0.0,0.0,97,0.00,,,0.07,,2013-06-25 05:44:00,
2013-06-25 01:52:00,71.0,70.0,30.16,ENE,58,0.0,0.0,97,0.00,,,0.07,,2013-06-25 05:52:00,
2013-06-25 02:01:00,71.0,70.0,30.16,ENE,58,0.0,0.0,97,0.00,,,0.07,,2013-06-25 06:01:00,
2013-06-25 02:43:00,71.0,70.0,30.15,ENE,58,0.0,0.0,97,0.00,,,0.07,,2013-06-25 06:43:00,
2013-06-25 02:52:00,71.0,70.0,30.15,ENE,58,0.0,0.0,98,0.00,,,0.07,,2013-06-25 06:52:00,
2013-06-25 03:02:00,71.0,70.0,30.14,ENE,58,0.0,0.0,97,0.00,,,0.07,,2013-06-25 07:02:00,
2013-06-25 03:33:00,71.0,70.0,30.14,ENE,58,0.0,0.0,97,0.00,,,0.07,,2013-06-25 07:33:00,
2013-06-25 03:52:00,71.0,70.0,30.14,ENE,58,0.0,0.0,98,0.00,,,0.07,,2013-06-25 07:52:00,
2013-06-25 04:11:00,71.0,70.0,30.15,ENE,58,0.0,0.0,98,0.00,,,0.07,,2013-06-25 08:11:00,
2013-06-25 04:53:00,71.0,70.0,30.15,ENE,58,0.0,0.0,97,0.00,,,0.07,,2013-06-25 08:53:00,
2013-06-25 05:43:00,70.0,69.0,30.16,ENE,58,0.0,0.0,98,0.00,,,0.07,,2013-06-25 09:43:00,
2013-06-25 06:01:00,70.0,69.0,30.16,ENE,58,0.0,0.0,98,0.00,,,0.07,,2013-06-25 10:01:00,
2013-06-25 06:42:00,71.0,70.0,30.16,ENE,58,0.0,0.0,98,0.01,,,0.08,,2013-06-25 10:42:00,
2013-06-25 06:52:00,71.0,70.0,30.16,ENE,58,0.0,0.0,98,0.01,,,0.08,,2013-06-25 10:52:00,
2013-06-25 07:52:00,72.0,71.0,30.17,ENE,58,0.0,0.0,98,0.00,,,0.08,,2013-06-25 11:52:00,
2013-06-25 08:11:00,73.0,72.0,30.17,ENE,58,0.0,0.0,98,0.00,,,0.08,,2013-06-25 12:11:00,
2013-06-25 08:22:00,74.0,73.0,30.17,ENE,58,0.0,1.0,98,0.00,,,0.08,,2013-06-25 12:22:00,
2013-06-25 09:42:00,79.0,75.0,30.18,SW,222,0.0,5.0,89,0.00,,,0.08,,2013-06-25 13:42:00,
2013-06-25 09:53:00,80.0,75.0,30.18,WSW,249,1.0,4.0,85,0.00,,,0.08,,2013-06-25 13:53:00,
2013-06-25 10:01:00,80.0,74.0,30.18,SSW,210,1.0,4.0,82,0.00,,,0.08,,2013-06-25 14:01:00,
2013-06-25 10:34:00,82.0,75.0,30.17,SW,223,1.0,3.0,80,0.00,,,0.08,,2013-06-25 14:34:00,
2013-06-25 11:22:00,84.0,74.0,30.16,SW,226,1.0,5.0,71,0.00,,,0.08,,2013-06-25 15:22:00,
2013-06-25 11:32:00,85.0,76.0,30.16,WSW,238,1.0,3.0,75,0.00,,,0.08,,2013-06-25 15:32:00,
2013-06-25 11:44:00,85.0,75.0,30.16,NNW,342,0.0,2.0,72,0.00,,,0.08,,2013-06-25 15:44:00,
2013-06-25 13:22:00,88.0,76.0,30.14,East,84,1.0,3.0,67,0.00,,,0.08,,2013-06-25 17:22:00,
2013-06-25 13:44:00,88.0,75.0,30.13,SW,221,1.0,4.0,66,0.00,,,0.08,,2013-06-25 17:44:00,
2013-06-25 13:53:00,88.0,75.0,30.13,SW,221,1.0,4.0,66,0.00,,,0.08,,2013-06-25 17:53:00,
2013-06-25 15:22:00,92.0,77.0,30.09,SE,138,1.0,3.0,61,0.00,,,0.08,,2013-06-25 19:22:00,
2013-06-25 15:44:00,89.0,76.0,30.08,SW,217,1.0,3.0,65,0.00,,,0.08,,2013-06-25 19:44:00,
2013-06-25 16:02:00,90.0,75.0,30.07,West,267,1.0,3.0,62,0.00,,,0.08,,2013-06-25 20:02:00,
2013-06-25 17:43:00,91.0,76.0,30.07,SW,228,0.0,3.0,61,0.00,,,0.08,,2013-06-25 21:43:00,
2013-06-25 17:53:00,91.0,75.0,30.07,SW,232,1.0,3.0,59,0.00,,,0.08,,2013-06-25 21:53:00,
2013-06-25 18:34:00,84.0,73.0,30.06,East,99,2.0,3.0,69,0.00,,,0.08,,2013-06-25 22:34:00,
2013-06-25 19:34:00,79.0,73.0,30.04,SE,129,0.0,1.0,82,0.00,,,0.08,,2013-06-25 23:34:00,
2013-06-25 19:44:00,78.0,73.0,30.05,SE,129,0.0,1.0,85,0.00,,,0.08,,2013-06-25 23:44:00,
2013-06-25 20:02:00,78.0,73.0,30.06,SE,129,0.0,1.0,86,0.00,,,0.08,,2013-06-26 00:02:00,
2013-06-25 20:11:00,77.0,73.0,30.06,SE,128,0.0,0.0,87,0.00,,,0.08,,2013-06-26 00:11:00,
2013-06-25 20:33:00,76.0,73.0,30.06,SSW,205,0.0,1.0,89,0.00,,,0.02,,2013-06-26 00:33:00,
2013-06-25 20:42:00,76.0,73.0,30.07,SSW,205,0.0,1.0,89,0.00,,,0.02,,2013-06-26 00:42:00,
2013-06-25 21:01:00,76.0,73.0,30.07,SSW,205,0.0,1.0,91,0.00,,,0.02,,2013-06-26 01:01:00,
2013-06-25 21:11:00,76.0,73.0,30.08,SSW,207,0.0,1.0,91,0.00,,,0.02,,2013-06-26 01:11:00,
2013-06-25 21:33:00,75.0,73.0,30.08,SSW,205,0.0,0.0,92,0.00,,,0.01,,2013-06-26 01:33:00,
2013-06-25 22:02:00,75.0,73.0,30.07,SSW,205,0.0,0.0,92,0.00,,,0.01,,2013-06-26 02:02:00,
2013-06-25 22:43:00,75.0,73.0,30.09,SSW,205,0.0,0.0,93,0.00,,,0.01,,2013-06-26 02:43:00,
2013-06-25 23:02:00,74.0,72.0,30.08,SSW,206,0.0,0.0,93,0.00,,,0.01,,2013-06-26 03:02:00,
2013-06-25 23:22:00,74.0,72.0,30.08,SSW,205,0.0,0.0,93,0.00,,,0.01,,2013-06-26 03:22:00,
2013-06-25 23:43:00,74.0,72.0,30.07,SSW,207,0.0,1.0,94,0.00,,,0.01,,2013-06-26 03:43:00,